createdAt,value
2023-03-19T00:00:33.955Z,39.93
2023-03-19T00:03:00.664Z,39.77
2023-03-19T00:05:27.280Z,39.81
2023-03-19T00:07:53.937Z,39.80
2023-03-19T00:10:20.581Z,39.67
2023-03-19T00:12:47.418Z,39.73
2023-03-19T00:15:15.292Z,40.13
2023-03-19T00:17:43.079Z,40.09
2023-03-19T00:20:11.857Z,40.16
2023-03-19T00:22:39.909Z,40.59
2023-03-19T00:25:08.309Z,40.75
2023-03-19T00:27:35.315Z,40.33
2023-03-19T00:30:02.896Z,40.41
2023-03-19T00:32:30.038Z,40.51
2023-03-19T00:34:56.678Z,40.26
2023-03-19T00:37:23.403Z,40.37
2023-03-19T00:39:50.257Z,40.29
2023-03-19T00:42:16.751Z,40.50
2023-03-19T00:44:43.288Z,40.87
2023-03-19T00:47:09.896Z,41.10
2023-03-19T00:49:36.853Z,40.86
2023-03-19T00:52:04.253Z,40.71
2023-03-19T00:54:32.393Z,41.48
2023-03-19T00:56:59.350Z,40.58
2023-03-19T00:59:26.291Z,40.82
2023-03-19T01:01:52.858Z,41.23
2023-03-19T01:04:20.359Z,41.23
2023-03-19T01:06:46.808Z,41.41
2023-03-19T01:09:13.308Z,41.38
2023-03-19T01:11:39.835Z,41.28
2023-03-19T01:14:06.543Z,41.24
2023-03-19T01:16:34.801Z,41.58
2023-03-19T01:19:02.245Z,41.38
2023-03-19T01:21:31.098Z,41.71
2023-03-19T01:23:58.347Z,41.93
2023-03-19T01:26:25.065Z,41.96
2023-03-19T01:28:51.531Z,42.45
2023-03-19T01:31:18.112Z,42.64
2023-03-19T01:33:44.645Z,42.50
2023-03-19T01:36:11.216Z,42.53
2023-03-19T01:38:38.005Z,42.95
2023-03-19T01:41:04.884Z,43.31
2023-03-19T01:43:32.726Z,42.80
2023-03-19T01:46:02.969Z,42.78
2023-03-19T01:48:36.773Z,43.33
2023-03-19T01:51:04.346Z,43.42
2023-03-19T01:53:33.183Z,43.40
2023-03-19T01:56:04.256Z,43.64
2023-03-19T01:58:31.015Z,43.51
2023-03-19T02:00:58.161Z,44.10
2023-03-19T02:03:25.331Z,44.14
2023-03-19T02:05:52.836Z,44.21
2023-03-19T02:08:22.854Z,44.69
2023-03-19T02:10:50.460Z,44.40
2023-03-19T02:13:17.039Z,44.40
2023-03-19T02:15:43.690Z,44.61
2023-03-19T02:18:10.635Z,44.40
2023-03-19T02:20:54.801Z,44.78
2023-03-19T02:23:32.711Z,44.20
2023-03-19T02:26:09.125Z,44.20
2023-03-19T02:28:39.252Z,44.63
2023-03-19T02:31:07.530Z,44.58
2023-03-19T02:33:34.485Z,44.27
2023-03-19T02:36:03.920Z,44.41
2023-03-19T02:38:33.536Z,44.64
2023-03-19T02:41:02.936Z,45.12
2023-03-19T02:43:31.712Z,45.10
2023-03-19T02:45:58.864Z,44.98
2023-03-19T02:48:25.542Z,44.65
2023-03-19T02:50:52.599Z,45.18
2023-03-19T02:53:19.302Z,45.23
2023-03-19T02:55:46.142Z,45.11
2023-03-19T02:58:12.789Z,45.21
2023-03-19T03:00:39.375Z,45.02
2023-03-19T03:03:07.596Z,45.18
2023-03-19T03:05:34.932Z,45.11
2023-03-19T03:08:01.792Z,45.81
2023-03-19T03:10:28.589Z,45.48
2023-03-19T03:12:55.183Z,45.91
2023-03-19T03:15:21.736Z,46.13
2023-03-19T03:17:48.466Z,46.04
2023-03-19T03:20:17.639Z,45.67
2023-03-19T03:22:44.629Z,45.87
2023-03-19T03:25:11.314Z,46.06
2023-03-19T03:27:38.161Z,45.77
2023-03-19T03:30:08.354Z,45.46
2023-03-19T03:32:36.880Z,45.71
2023-03-19T03:35:05.293Z,46.08
2023-03-19T03:37:31.839Z,46.09
2023-03-19T03:39:58.342Z,46.11
2023-03-19T03:42:24.804Z,45.67
2023-03-19T03:44:51.351Z,45.54
2023-03-19T03:47:17.990Z,45.76
2023-03-19T03:49:45.659Z,45.65
2023-03-19T03:52:12.384Z,46.11
2023-03-19T03:54:39.116Z,46.21
2023-03-19T03:57:06.094Z,45.98
2023-03-19T03:59:32.583Z,45.96
2023-03-19T04:01:59.147Z,46.07
2023-03-19T04:04:26.486Z,45.52
2023-03-19T04:06:52.981Z,45.09
2023-03-19T04:09:19.559Z,45.10
2023-03-19T04:11:46.760Z,45.67
2023-03-19T04:14:13.244Z,45.72
2023-03-19T04:16:39.994Z,46.13
2023-03-19T04:19:07.731Z,45.72
2023-03-19T04:21:35.187Z,45.91
2023-03-19T04:24:02.816Z,46.34
2023-03-19T04:26:29.427Z,46.00
2023-03-19T04:28:56.056Z,45.86
2023-03-19T04:31:22.828Z,45.75
2023-03-19T04:33:49.544Z,45.67
2023-03-19T04:36:17.922Z,45.84
2023-03-19T04:38:44.548Z,45.80
2023-03-19T04:41:11.016Z,46.14
2023-03-19T04:43:37.512Z,45.78
2023-03-19T04:46:04.420Z,46.01
2023-03-19T04:48:32.144Z,46.01
2023-03-19T04:50:58.706Z,45.72
2023-03-19T04:53:25.528Z,46.40
2023-03-19T04:55:52.117Z,46.29
2023-03-19T04:58:18.914Z,46.25
2023-03-19T05:00:47.478Z,46.40
2023-03-19T05:03:15.214Z,46.32
2023-03-19T05:05:42.180Z,46.45
2023-03-19T05:08:09.470Z,46.05
2023-03-19T05:10:37.428Z,46.42
2023-03-19T05:13:05.261Z,46.20
2023-03-19T05:15:32.092Z,46.68
2023-03-19T05:17:58.998Z,46.37
2023-03-19T05:20:25.633Z,46.23
2023-03-19T05:22:53.292Z,46.29
2023-03-19T05:25:19.871Z,46.16
2023-03-19T05:27:46.646Z,46.40
2023-03-19T05:30:13.316Z,46.17
2023-03-19T05:32:40.701Z,46.45
2023-03-19T05:35:07.838Z,46.63
2023-03-19T05:37:34.388Z,45.94
2023-03-19T05:40:00.915Z,46.53
2023-03-19T05:42:27.417Z,46.08
2023-03-19T05:44:54.216Z,45.60
2023-03-19T05:47:21.422Z,45.91
2023-03-19T05:49:47.987Z,45.54
2023-03-19T05:52:14.769Z,44.98
2023-03-19T05:54:41.630Z,45.16
2023-03-19T05:57:08.481Z,44.62
2023-03-19T05:59:35.899Z,44.09
2023-03-19T06:02:02.968Z,44.19
2023-03-19T06:04:29.450Z,44.24
2023-03-19T06:06:56.144Z,43.57
2023-03-19T06:09:22.687Z,42.76
2023-03-19T06:11:49.208Z,42.74
2023-03-19T06:14:16.105Z,42.46
2023-03-19T06:16:42.799Z,42.57
2023-03-19T06:19:09.471Z,42.45
2023-03-19T06:21:36.521Z,41.85
2023-03-19T06:24:04.110Z,42.03
2023-03-19T06:26:30.687Z,41.38
2023-03-19T06:28:57.429Z,41.38
2023-03-19T06:31:24.115Z,41.83
2023-03-19T06:33:50.912Z,41.51
2023-03-19T06:36:17.778Z,41.47
2023-03-19T06:38:44.365Z,41.28
2023-03-19T06:41:10.987Z,40.63
2023-03-19T06:43:37.669Z,40.60
2023-03-19T06:46:05.173Z,39.84
2023-03-19T06:48:32.130Z,39.86
2023-03-19T06:50:58.803Z,39.56
2023-03-19T06:53:25.465Z,39.25
2023-03-19T06:55:52.083Z,38.59
2023-03-19T06:58:18.659Z,38.24
2023-03-19T07:00:45.278Z,38.26
2023-03-19T07:03:12.278Z,37.53
2023-03-19T07:05:38.870Z,37.42
2023-03-19T07:08:11.694Z,37.13
2023-03-19T07:10:39.383Z,36.71
2023-03-19T07:13:06.478Z,37.13
2023-03-19T07:15:33.522Z,36.31
2023-03-19T07:18:00.312Z,36.32
2023-03-19T07:20:26.981Z,36.73
2023-03-19T07:22:54.135Z,36.37
2023-03-19T07:25:20.878Z,36.41
2023-03-19T07:27:47.601Z,36.18
2023-03-19T07:30:14.679Z,35.79
2023-03-19T07:32:41.323Z,34.84
2023-03-19T07:35:08.550Z,33.15
2023-03-19T07:37:35.082Z,30.15
2023-03-19T07:40:01.759Z,27.52
2023-03-19T07:42:28.328Z,23.50
2023-03-19T07:44:54.878Z,22.16
2023-03-19T07:47:28.842Z,20.31
2023-03-19T07:49:56.744Z,19.61
2023-03-19T07:52:24.023Z,18.94
2023-03-19T07:54:50.851Z,18.38
2023-03-19T07:57:17.482Z,18.75
2023-03-19T07:59:43.976Z,18.82
2023-03-19T08:02:12.229Z,18.76
2023-03-19T08:04:39.550Z,20.15
2023-03-19T08:07:06.964Z,19.68
2023-03-19T08:09:34.193Z,19.81
2023-03-19T08:12:00.889Z,19.51
2023-03-19T08:14:27.554Z,18.92
2023-03-19T08:16:54.186Z,19.42
2023-03-19T08:19:20.910Z,19.96
2023-03-19T08:21:47.565Z,20.30
2023-03-19T08:24:14.363Z,20.79
2023-03-19T08:26:41.189Z,21.52
2023-03-19T08:29:09.029Z,22.19
2023-03-19T08:31:35.681Z,22.13
2023-03-19T08:34:06.152Z,23.01
2023-03-19T08:36:32.744Z,22.93
2023-03-19T08:38:59.520Z,23.30
2023-03-19T08:41:26.140Z,24.42
2023-03-19T08:43:52.830Z,24.68
2023-03-19T08:46:19.604Z,24.27
2023-03-19T08:48:46.422Z,25.50
2023-03-19T08:51:13.089Z,26.30
2023-03-19T08:53:40.152Z,27.76
2023-03-19T08:56:10.454Z,27.35
2023-03-19T08:58:37.027Z,27.44
2023-03-19T09:01:08.840Z,27.38
2023-03-19T09:03:36.057Z,27.20
2023-03-19T09:06:04.543Z,27.02
2023-03-19T10:08:53.603Z,29.06
2023-03-19T10:11:50.370Z,28.66
2023-03-19T10:14:38.913Z,28.73
2023-03-19T10:17:07.362Z,29.17
2023-03-19T10:19:48.337Z,29.70
2023-03-19T10:22:37.232Z,29.90
2023-03-19T10:25:06.451Z,29.69
2023-03-19T10:27:33.056Z,29.38
2023-03-19T10:29:59.814Z,29.19
2023-03-19T10:32:39.716Z,29.41
2023-03-19T10:35:20.739Z,29.74
2023-03-19T10:37:49.012Z,29.06
2023-03-19T10:40:23.586Z,29.44
2023-03-19T10:43:01.897Z,29.11
2023-03-19T10:45:39.112Z,29.64
2023-03-19T10:48:06.269Z,29.48
2023-03-19T10:50:38.607Z,29.80
2023-03-19T10:53:29.500Z,29.54
2023-03-19T10:56:19.453Z,29.94
2023-03-19T10:58:59.159Z,29.06
2023-03-19T11:01:39.516Z,29.72
2023-03-19T11:04:17.684Z,29.10
2023-03-19T11:06:50.306Z,28.96
2023-03-19T11:09:24.393Z,29.28
2023-03-19T11:11:59.565Z,29.16
2023-03-19T11:14:31.982Z,29.22
2023-03-19T11:17:20.475Z,29.10
2023-03-19T11:19:55.018Z,28.57
2023-03-19T11:22:32.198Z,28.31
2023-03-19T11:25:23.692Z,28.21
2023-03-19T11:28:04.627Z,28.52
2023-03-19T11:30:40.740Z,28.38
2023-03-19T11:33:33.754Z,28.61
2023-03-19T11:36:29.137Z,29.10
2023-03-19T11:39:17.783Z,28.40
2023-03-19T11:41:53.208Z,28.58
2023-03-19T11:44:35.038Z,28.66
2023-03-19T11:47:26.472Z,28.32
2023-03-19T11:49:59.700Z,28.92
2023-03-19T11:52:35.462Z,28.97
2023-03-19T11:55:21.346Z,28.95
2023-03-19T11:57:57.732Z,28.36
2023-03-19T12:00:50.864Z,28.34
2023-03-19T12:03:28.968Z,28.85
2023-03-19T12:06:16.571Z,27.91
2023-03-19T12:08:47.716Z,27.99
2023-03-19T12:11:32.515Z,28.25
2023-03-19T12:14:04.415Z,27.65
2023-03-19T12:16:55.887Z,27.63
2023-03-19T12:19:41.485Z,28.53
2023-03-19T12:22:31.507Z,28.41
2023-03-19T12:25:17.148Z,29.14
2023-03-19T12:27:55.508Z,28.70
2023-03-19T12:30:22.100Z,28.64
2023-03-19T12:33:19.726Z,28.12
2023-03-19T12:35:50.005Z,27.59
2023-03-19T12:38:19.564Z,27.08
2023-03-19T12:40:52.666Z,27.15
2023-03-19T12:43:44.084Z,27.22
2023-03-19T12:46:16.595Z,27.78
2023-03-19T12:48:55.793Z,27.94
2023-03-19T12:51:26.590Z,27.94
2023-03-19T12:54:04.585Z,27.43
2023-03-19T12:56:40.290Z,28.33
2023-03-19T12:59:31.908Z,27.94
2023-03-19T13:02:23.767Z,27.73
2023-03-19T13:04:57.396Z,27.43
2023-03-19T13:07:32.215Z,27.20
2023-03-19T13:10:04.625Z,27.33
2023-03-19T13:12:33.954Z,27.91
2023-03-19T13:15:10.113Z,27.60
2023-03-19T13:17:42.680Z,27.25
2023-03-19T13:20:27.210Z,27.28
2023-03-19T13:22:57.530Z,27.58
2023-03-19T13:25:29.215Z,27.62
2023-03-19T13:27:56.002Z,27.65
2023-03-19T13:30:23.876Z,28.04
2023-03-19T13:32:54.285Z,27.89
2023-03-19T13:35:28.585Z,27.52
2023-03-19T13:38:00.232Z,27.99
2023-03-19T13:40:39.107Z,27.94
2023-03-19T13:43:28.065Z,28.29
2023-03-19T13:46:04.255Z,28.38
2023-03-19T13:48:37.577Z,28.28
2023-03-19T13:51:12.796Z,28.81
2023-03-19T13:54:04.268Z,29.04
2023-03-19T13:56:33.173Z,28.70
2023-03-19T13:59:15.061Z,28.72
2023-03-19T14:01:44.941Z,28.66
2023-03-19T14:04:20.602Z,28.32
2023-03-19T14:06:53.658Z,28.25
2023-03-19T14:09:38.205Z,28.89
2023-03-19T14:12:20.443Z,28.70
2023-03-19T14:14:50.415Z,28.45
2023-03-19T14:17:20.556Z,28.83
2023-03-19T14:19:47.164Z,27.97
2023-03-19T14:22:16.378Z,27.77
2023-03-19T14:24:57.094Z,27.84
2023-03-19T14:27:30.484Z,28.05
2023-03-19T14:30:00.810Z,28.25
2023-03-19T14:32:33.393Z,28.60
2023-03-19T14:35:00.977Z,27.96
2023-03-19T14:37:34.621Z,27.96
2023-03-19T14:40:16.870Z,28.08
2023-03-19T14:43:21.912Z,28.35
2023-03-19T14:45:55.575Z,28.65
2023-03-19T14:48:59.491Z,28.74
2023-03-19T14:51:53.599Z,28.20
2023-03-19T14:54:30.324Z,28.67
2023-03-19T14:56:57.744Z,29.04
2023-03-19T14:59:24.452Z,29.40
2023-03-19T15:01:53.031Z,29.02
2023-03-19T15:04:22.620Z,29.04
2023-03-19T15:06:55.230Z,29.19
2023-03-19T15:09:29.878Z,29.21
2023-03-19T15:12:20.637Z,29.05
2023-03-19T15:15:10.093Z,29.16
2023-03-19T15:17:39.632Z,28.90
2023-03-19T15:20:24.173Z,29.03
2023-03-19T15:22:54.702Z,28.83
2023-03-19T15:25:21.642Z,28.96
2023-03-19T15:28:05.748Z,29.24
2023-03-19T15:30:32.916Z,29.41
2023-03-19T15:33:13.927Z,29.52
2023-03-19T15:35:44.178Z,29.59
2023-03-19T15:38:13.536Z,29.67
2023-03-19T15:40:41.496Z,29.69
2023-03-19T15:43:11.489Z,29.68
2023-03-19T15:45:38.527Z,29.75
2023-03-19T15:48:32.871Z,30.18
2023-03-19T15:51:02.775Z,30.41
2023-03-19T15:53:31.770Z,30.43
2023-03-19T15:56:01.211Z,30.63
2023-03-19T15:58:30.822Z,30.83
2023-03-19T16:00:59.480Z,30.71
2023-03-19T16:03:33.041Z,31.28
2023-03-19T16:06:27.052Z,31.77
2023-03-19T16:08:55.457Z,31.44
2023-03-19T16:11:34.294Z,31.64
2023-03-19T16:14:21.418Z,31.90
2023-03-19T16:16:48.852Z,31.82
2023-03-19T16:19:39.294Z,32.15
2023-03-19T16:22:17.386Z,31.82
2023-03-19T16:24:46.414Z,32.10
2023-03-19T16:27:18.285Z,32.52
2023-03-19T16:29:46.949Z,32.42
2023-03-19T16:32:23.603Z,32.75
2023-03-19T16:35:15.885Z,32.57
2023-03-19T16:37:47.771Z,32.83
2023-03-19T16:40:15.521Z,32.68
2023-03-19T16:42:45.755Z,32.68
2023-03-19T16:45:15.334Z,32.91
2023-03-19T16:47:49.922Z,33.62
2023-03-19T16:50:18.082Z,33.46
2023-03-19T16:52:45.746Z,33.80
2023-03-19T16:55:28.306Z,33.38
2023-03-19T16:58:20.275Z,33.89
2023-03-19T17:00:47.399Z,33.85
2023-03-19T17:03:16.283Z,33.64
2023-03-19T17:05:44.085Z,33.67
2023-03-19T17:08:11.654Z,34.01
2023-03-19T17:10:42.190Z,33.96
2023-03-19T17:13:23.444Z,34.62
2023-03-19T17:15:50.808Z,34.62
2023-03-19T17:18:21.191Z,35.41
2023-03-19T17:20:52.850Z,35.17
2023-03-19T17:23:19.712Z,35.41
2023-03-19T17:25:46.398Z,35.34
2023-03-19T17:28:12.859Z,35.43
2023-03-19T17:30:39.575Z,35.32
2023-03-19T17:33:06.203Z,35.33
2023-03-19T17:35:34.221Z,35.48
2023-03-19T17:38:01.206Z,35.64
2023-03-19T17:40:28.010Z,35.32
2023-03-19T17:42:55.752Z,35.36
2023-03-19T17:45:27.770Z,35.33
2023-03-19T17:47:56.568Z,35.72
2023-03-19T17:50:28.322Z,36.15
2023-03-19T17:52:55.086Z,36.17
2023-03-19T17:55:24.637Z,36.08
2023-03-19T17:57:51.603Z,36.20
2023-03-19T18:00:20.333Z,36.22
2023-03-19T18:02:48.206Z,36.42
2023-03-19T18:05:16.660Z,36.63
2023-03-19T18:07:44.943Z,36.37
2023-03-19T18:10:26.717Z,36.80
2023-03-19T18:12:54.595Z,36.70
2023-03-19T18:15:21.828Z,37.00
2023-03-19T18:17:54.489Z,37.30
2023-03-19T18:20:23.117Z,37.00
2023-03-19T18:22:50.067Z,37.00
2023-03-19T18:25:20.225Z,37.09
2023-03-19T18:27:51.457Z,37.26
2023-03-19T18:30:20.646Z,37.58
2023-03-19T18:32:54.287Z,37.70
2023-03-19T18:35:23.240Z,37.78
2023-03-19T18:37:51.203Z,37.68
2023-03-19T18:40:25.672Z,37.56
2023-03-19T18:42:52.708Z,38.13
2023-03-19T18:45:19.751Z,38.50
2023-03-19T18:47:48.192Z,38.42
2023-03-19T18:50:26.288Z,38.88
2023-03-19T18:52:53.706Z,39.21
2023-03-19T18:55:20.980Z,39.22
2023-03-19T18:57:59.618Z,39.31
2023-03-19T19:00:37.730Z,39.30
2023-03-19T19:03:05.427Z,39.56
2023-03-19T19:05:32.948Z,39.69
2023-03-19T19:08:04.449Z,39.32
2023-03-19T19:10:42.368Z,39.43
2023-03-19T19:13:15.993Z,39.37
2023-03-19T19:15:42.499Z,39.45
2023-03-19T19:18:20.650Z,39.83
2023-03-19T19:20:49.337Z,40.06
2023-03-19T19:23:16.361Z,40.03
2023-03-19T19:25:45.433Z,39.88
2023-03-19T19:28:19.248Z,39.93
2023-03-19T19:30:46.241Z,39.72
2023-03-19T19:33:17.851Z,40.07
2023-03-19T19:35:44.964Z,39.56
2023-03-19T19:38:12.964Z,39.61
2023-03-19T19:40:43.615Z,39.29
2023-03-19T19:43:19.479Z,40.18
2023-03-19T19:45:48.058Z,40.56
2023-03-19T19:48:17.444Z,40.93
2023-03-19T19:50:45.132Z,40.58
2023-03-19T19:53:12.341Z,40.63
2023-03-19T19:55:39.172Z,40.94
2023-03-19T19:58:08.528Z,40.66
2023-03-19T20:00:35.252Z,40.71
2023-03-19T20:03:01.815Z,40.45
2023-03-19T20:05:31.303Z,40.55
2023-03-19T20:08:00.686Z,40.40
2023-03-19T20:10:29.658Z,40.49
2023-03-19T20:12:58.857Z,40.43
2023-03-19T20:15:36.833Z,40.60
2023-03-19T20:18:05.283Z,39.88
2023-03-19T20:20:33.076Z,40.32
2023-03-19T20:23:02.315Z,39.61
2023-03-19T20:25:32.464Z,39.67
2023-03-19T20:28:00.585Z,39.27
2023-03-19T20:30:28.943Z,39.11
2023-03-19T20:32:56.573Z,39.26
2023-03-19T20:35:28.501Z,39.09
2023-03-19T20:37:56.602Z,39.40
2023-03-19T20:40:26.398Z,39.95
2023-03-19T20:42:52.948Z,39.85
2023-03-19T20:45:21.912Z,39.38
2023-03-19T20:47:49.150Z,39.34
2023-03-19T20:50:26.371Z,39.90
2023-03-19T20:52:52.991Z,39.15
2023-03-19T20:55:21.832Z,39.58
2023-03-19T20:57:50.051Z,39.19
2023-03-19T21:00:28.326Z,39.21
2023-03-19T21:02:58.532Z,39.17
2023-03-19T21:05:30.483Z,39.07
2023-03-19T21:07:57.051Z,38.62
2023-03-19T21:10:39.485Z,38.15
2023-03-19T21:13:06.951Z,38.76
2023-03-19T21:15:33.959Z,38.13
2023-03-19T21:18:00.820Z,38.18
2023-03-19T21:20:28.971Z,37.78
2023-03-19T21:23:19.446Z,37.94
2023-03-19T21:25:46.435Z,38.40
2023-03-19T21:28:33.471Z,38.33
2023-03-19T21:31:00.532Z,38.07
2023-03-19T21:33:29.832Z,38.48
2023-03-19T21:35:57.442Z,38.73
2023-03-19T21:38:24.473Z,39.05
2023-03-19T21:40:52.819Z,38.66
2023-03-19T21:43:22.669Z,39.19
2023-03-19T21:45:52.576Z,39.39
2023-03-19T21:48:25.239Z,39.75
2023-03-19T21:50:52.142Z,39.85
2023-03-19T21:53:19.531Z,39.98
2023-03-19T21:55:46.296Z,39.90
2023-03-19T21:58:14.419Z,40.12
2023-03-19T22:00:41.654Z,40.00
2023-03-19T22:03:15.024Z,40.29
2023-03-19T22:05:41.755Z,40.49
2023-03-19T22:08:08.755Z,40.48
2023-03-19T22:10:35.531Z,40.42
2023-03-19T22:13:02.888Z,40.63
2023-03-19T22:15:37.670Z,41.29
2023-03-19T22:18:06.962Z,40.85
2023-03-19T22:20:33.680Z,40.58
2023-03-19T22:23:00.558Z,40.24
2023-03-19T22:25:31.732Z,40.11
2023-03-19T22:27:58.381Z,39.95
2023-03-19T22:30:36.285Z,40.60
2023-03-19T22:33:14.475Z,39.84
2023-03-19T22:35:41.657Z,40.32
2023-03-19T22:38:08.195Z,39.91
2023-03-19T22:40:34.972Z,39.90
2023-03-19T22:43:01.632Z,40.33
2023-03-19T22:45:31.136Z,40.52
2023-03-19T22:47:58.292Z,40.78
2023-03-19T22:50:27.781Z,40.73
2023-03-19T22:52:54.882Z,40.59
2023-03-19T22:55:21.570Z,40.64
2023-03-19T22:57:48.576Z,40.34
2023-03-19T23:00:21.092Z,40.14
2023-03-19T23:02:54.709Z,40.37
2023-03-19T23:05:25.896Z,40.63
2023-03-19T23:07:53.443Z,40.71
2023-03-19T23:10:21.395Z,40.48
2023-03-19T23:12:48.159Z,40.87
2023-03-19T23:15:14.820Z,40.74
2023-03-19T23:17:42.178Z,40.92
2023-03-19T23:20:17.814Z,41.22
2023-03-19T23:22:45.714Z,41.25
2023-03-19T23:25:18.127Z,41.80
2023-03-19T23:27:45.631Z,41.87
2023-03-19T23:30:32.070Z,42.14
2023-03-19T23:33:01.590Z,41.85
2023-03-19T23:35:30.507Z,41.90
2023-03-19T23:37:57.496Z,42.19
2023-03-19T23:40:31.280Z,42.14
2023-03-19T23:42:58.663Z,42.18
2023-03-19T23:45:25.024Z,41.96
2023-03-19T23:47:51.566Z,42.20
2023-03-19T23:50:18.323Z,42.13
2023-03-19T23:52:44.911Z,41.89
2023-03-19T23:55:11.643Z,42.45
2023-03-19T23:57:38.791Z,41.91
